Apex, North Carolina
Current Conditions -  °F | °C
As of 6:51 PM on Sunday 25 Jan 2015 (Local Time) from KRDU Reporting Station
Few Clouds Few Clouds  
Wind Chill: 45°   Ceiling: Unl
Heat Index: 47°   Visibility: 10mi
Dew Point: 32°   Wind: 5mph
Humidity: 56%   Direction: 160°SSE
Pressure: 29.84"   Gusts: NA
Location:  35.73°N, 78.84°W
Report Text: KRDU 252351Z 16004KT 10SM FEW250 08/00 A2984 RMK AO2 SLP108 T00830000 10128 20083 53002 $
Loading
Personal Weather Stations






























Interactive Weather Map New forecast layout! Learn more

10-Day Weather Forecast

Advertisements
Track Severe Weather on mobile